Time;durP1;ratioP1;P1;durP2;ratioP2;P2;SDS_P1;SDS_P2;PMS_P1;PMS_P2;Temp;Humidity;BMP_temperature;BMP_pressure;BME280_temperature;BME280_humidity;BME280_pressure;Samples;Min_cycle;Max_cycle;Signal;HPM_P1;HPM_P2
2023/06/05 07:10:59;;;;;;;;;6.25;4.75;;;;;21.83;44.37;101559.22;5082354;27;45328;-55
2023/06/05 07:13:25;;;;;;;;;3.75;3.75;;;;;22.26;44.20;101551.78;5072129;28;45350;-47
2023/06/05 07:15:51;;;;;;;;;7.33;5.00;;;;;22.62;43.18;101555.34;5070850;28;45302;-45
2023/06/05 07:18:18;;;;;;;;;5.50;4.75;;;;;22.89;42.42;101551.56;5064882;28;45720;-46
2023/06/05 07:20:43;;;;;;;;;6.00;5.00;;;;;23.21;41.91;101563.34;5051942;28;45714;-48
2023/06/05 07:23:09;;;;;;;;;6.50;6.25;;;;;23.43;42.16;101565.22;5065697;27;46986;-48
2023/06/05 07:25:34;;;;;;;;;4.33;4.33;;;;;23.66;41.71;101561.72;5064281;27;45468;-56
2023/06/05 07:28:00;;;;;;;;;5.33;5.00;;;;;23.83;41.40;101563.03;5064205;27;45473;-56
2023/06/05 07:30:28;;;;;;;;;3.67;3.67;;;;;23.97;40.85;101562.75;5070226;27;46348;-56
2023/06/05 07:32:53;;;;;;;;;6.33;5.33;;;;;24.11;40.39;101561.66;5057335;27;45353;-57
2023/06/05 07:35:19;;;;;;;;;7.00;4.75;;;;;24.24;40.00;101563.31;5054203;28;47660;-57
2023/06/05 07:37:44;;;;;;;;;4.00;4.00;;;;;24.37;39.98;101564.03;5062703;27;45516;-61
2023/06/05 07:40:10;;;;;;;;;4.00;4.00;;;;;24.50;39.96;101566.53;5051578;28;45313;-45
2023/06/05 07:42:35;;;;;;;;;6.00;4.00;;;;;24.60;39.67;101561.28;5062469;27;45511;-46
2023/06/05 07:45:01;;;;;;;;;3.33;3.33;;;;;24.71;39.30;101560.38;5057906;27;45527;-45
2023/06/05 07:47:27;;;;;;;;;3.33;3.00;;;;;24.77;38.86;101559.03;5068693;27;45276;-47
2023/06/05 07:50:00;;;;;;;;;4.33;3.00;;;;;24.77;38.96;101545.72;5068572;27;46095;-46
2023/06/05 07:52:26;;;;;;;;;5.00;4.00;;;;;24.86;38.79;101557.44;5060433;27;45360;-46
2023/06/05 07:54:52;;;;;;;;;3.67;3.67;;;;;24.89;38.64;101560.69;5070208;27;45775;-46
2023/06/05 07:57:17;;;;;;;;;8.75;5.00;;;;;24.93;38.45;101555.94;5066506;27;45385;-46
2023/06/05 07:59:43;;;;;;;;;3.25;3.25;;;;;24.95;38.36;101557.50;5071238;27;45388;-47
2023/06/05 08:02:09;;;;;;;;;5.50;4.00;;;;;24.98;38.12;101551.06;5071292;28;45361;-46
2023/06/05 08:04:35;;;;;;;;;5.33;4.00;;;;;24.99;38.28;101557.25;5071657;28;45414;-46
2023/06/05 08:07:00;;;;;;;;;5.00;3.33;;;;;25.04;38.11;101549.72;5067541;27;45628;-49
2023/06/05 08:09:26;;;;;;;;;7.00;6.33;;;;;25.06;37.95;101556.59;5066892;27;46271;-49
2023/06/05 08:11:51;;;;;;;;;6.00;5.00;;;;;25.11;37.87;101555.34;5080172;27;45507;-45
2023/06/05 08:14:17;;;;;;;;;3.67;2.00;;;;;25.12;37.87;101552.56;5079254;27;45582;-46
2023/06/05 08:16:43;;;;;;;;;4.67;4.33;;;;;25.16;37.68;101550.47;5080700;27;45718;-46
2023/06/05 08:19:08;;;;;;;;;11.33;5.33;;;;;25.19;37.59;101548.38;5083821;27;46207;-45
2023/06/05 08:21:34;;;;;;;;;5.33;5.33;;;;;25.25;37.60;101556.81;5073806;27;45312;-45
2023/06/05 08:24:00;;;;;;;;;9.00;6.00;;;;;25.28;37.31;101552.09;5067936;27;46433;-45
2023/06/05 08:26:25;;;;;;;;;6.67;4.67;;;;;25.32;37.46;101545.50;5073529;27;45554;-44
2023/06/05 08:28:51;;;;;;;;;4.00;3.00;;;;;25.35;37.40;101544.41;5067089;27;46579;-56
2023/06/05 08:31:16;;;;;;;;;4.67;4.33;;;;;25.34;37.28;101546.22;5079254;27;45487;-56
2023/06/05 08:33:43;;;;;;;;;5.67;4.33;;;;;25.34;37.19;101543.56;5090123;27;45499;-56
2023/06/05 08:36:08;;;;;;;;;4.00;3.67;;;;;25.30;37.07;101538.63;5076588;28;45413;-56
2023/06/05 08:38:35;;;;;;;;;6.67;5.00;;;;;25.30;37.06;101542.13;5077274;28;45400;-56
2023/06/05 08:41:07;;;;;;;;;6.33;4.33;;;;;25.29;36.87;101539.59;5097652;27;45635;-56
2023/06/05 08:43:39;;;;;;;;;3.00;3.00;;;;;25.28;37.34;101541.44;5098211;27;45448;-56
2023/06/05 08:46:06;;;;;;;;;3.00;3.00;;;;;25.27;37.17;101531.72;5086644;27;45360;-56
2023/06/05 08:48:37;;;;;;;;;4.00;3.00;;;;;25.27;37.34;101538.91;5068404;28;46027;-56
2023/06/05 08:51:03;;;;;;;;;6.33;5.00;;;;;25.27;37.04;101533.56;5063082;27;45420;-56
2023/06/05 08:53:34;;;;;;;;;8.33;5.00;;;;;25.28;37.23;101535.25;5068338;27;45627;-56
2023/06/05 08:56:01;;;;;;;;;3.67;3.67;;;;;25.27;37.08;101546.91;5071917;27;45419;-56
2023/06/05 08:58:27;;;;;;;;;5.67;5.00;;;;;25.26;37.19;101540.72;5055744;28;47826;-56
2023/06/05 09:00:53;;;;;;;;;4.67;4.67;;;;;25.28;37.15;101540.59;5066738;28;45500;-52
2023/06/05 09:03:20;;;;;;;;;4.33;4.33;;;;;25.29;37.32;101539.59;5075043;28;45345;-56
2023/06/05 09:05:48;;;;;;;;;4.33;3.67;;;;;25.32;37.55;101534.84;5073808;27;45527;-49
2023/06/05 09:08:17;;;;;;;;;5.00;5.00;;;;;25.38;37.14;101538.81;5066824;27;45548;-48
2023/06/05 09:10:43;;;;;;;;;3.67;3.67;;;;;25.41;36.94;101537.69;5077023;28;45457;-47
2023/06/05 09:13:09;;;;;;;;;5.67;4.33;;;;;25.43;37.21;101531.25;5090808;27;45524;-48
2023/06/05 09:15:35;;;;;;;;;3.67;3.67;;;;;25.44;37.02;101530.28;5089668;27;45287;-50
2023/06/05 09:18:11;;;;;;;;;6.00;4.33;;;;;25.46;36.90;101522.97;5056742;28;46056;-49
2023/06/05 09:20:39;;;;;;;;;4.00;4.00;;;;;25.47;37.21;101529.16;5060509;27;45548;-47
2023/06/05 09:23:29;;;;;;;;;4.00;4.00;;;;;25.50;36.88;101534.22;5075344;27;45515;-46
2023/06/05 09:25:58;;;;;;;;;4.00;4.00;;;;;25.49;37.06;101533.38;5077242;28;45294;-49
2023/06/05 09:28:24;;;;;;;;;3.00;3.00;;;;;25.50;36.97;101531.56;5068876;28;45496;-48
2023/06/05 09:30:57;;;;;;;;;5.33;3.00;;;;;25.51;36.99;101527.06;5067538;28;45302;-50
2023/06/05 09:33:30;;;;;;;;;6.00;4.33;;;;;25.50;37.05;101528.88;5070432;27;45419;-45
2023/06/05 09:36:10;;;;;;;;;6.33;5.00;;;;;25.50;37.13;101526.22;5071106;27;45484;-47
2023/06/05 09:38:37;;;;;;;;;4.67;4.67;;;;;25.50;36.99;101526.22;5065044;28;46174;-46
2023/06/05 09:41:10;;;;;;;;;3.67;3.00;;;;;25.51;37.04;101524.41;5064730;27;45340;-51
2023/06/05 09:43:37;;;;;;;;;4.00;4.00;;;;;25.51;36.96;101524.41;5066092;27;45371;-48
2023/06/05 09:46:06;;;;;;;;;3.00;3.00;;;;;25.50;37.03;101520.88;5061760;28;45283;-51
2023/06/05 09:48:32;;;;;;;;;4.33;4.33;;;;;25.49;37.04;101519.22;5055783;28;45422;-50
2023/06/05 09:51:19;;;;;;;;;5.33;4.00;;;;;25.49;37.22;101506.75;5055153;28;45811;-50
2023/06/05 09:53:49;;;;;;;;;6.00;4.00;;;;;25.50;36.85;101510.22;5055472;28;45577;-48
2023/06/05 09:56:16;;;;;;;;;4.33;4.00;;;;;25.48;37.25;101513.06;5066674;28;45441;-50
2023/06/05 09:58:50;;;;;;;;;4.00;4.00;;;;;25.49;36.96;101513.88;5063178;27;46151;-49
2023/06/05 10:01:22;;;;;;;;;3.00;2.00;;;;;25.48;36.78;101510.41;5056487;28;45358;-51
2023/06/05 10:04:09;;;;;;;;;3.67;3.00;;;;;25.48;36.64;101501.53;5057689;28;45429;-51
2023/06/05 10:06:36;;;;;;;;;4.33;4.33;;;;;25.47;36.35;101507.84;5073000;28;45253;-48
2023/06/05 10:09:02;;;;;;;;;7.67;7.33;;;;;25.48;36.59;101498.88;5064281;27;45966;-51
2023/06/05 10:11:28;;;;;;;;;3.67;3.67;;;;;25.47;36.58;101508.69;5042515;27;45436;-48
2023/06/05 10:13:55;;;;;;;;;4.00;4.00;;;;;25.49;36.69;101513.88;5027593;28;45394;-51
2023/06/05 10:16:21;;;;;;;;;7.25;6.00;;;;;25.48;36.50;101507.72;5033614;28;45680;-51
2023/06/05 10:18:47;;;;;;;;;5.00;4.00;;;;;25.48;36.62;101507.72;5033526;28;45758;-47
2023/06/05 10:21:17;;;;;;;;;6.33;3.67;;;;;25.49;36.49;101506.75;5025921;28;46822;-49
2023/06/05 10:23:49;;;;;;;;;4.33;4.00;;;;;25.49;36.35;101496.09;5035824;28;45576;-48
2023/06/05 10:26:36;;;;;;;;;5.67;4.33;;;;;25.49;36.54;101501.41;5033336;28;45457;-47
2023/06/05 10:29:17;;;;;;;;;4.00;4.00;;;;;25.49;36.55;101503.22;5029287;28;45877;-48
2023/06/05 10:31:52;;;;;;;;;5.33;5.33;;;;;25.51;36.77;101503.09;5031307;28;45540;-50
2023/06/05 10:34:33;;;;;;;;;4.00;4.00;;;;;25.51;36.55;101490.63;5032345;28;45483;-51
2023/06/05 10:37:21;;;;;;;;;4.00;4.00;;;;;25.51;36.38;101501.28;5033645;28;45621;-51
2023/06/05 10:39:49;;;;;;;;;7.00;5.67;;;;;25.52;36.50;101496.78;5032864;28;45896;-51
2023/06/05 10:42:25;;;;;;;;;3.33;3.33;;;;;25.52;36.28;101499.44;5032759;28;45426;-51
2023/06/05 10:44:52;;;;;;;;;8.33;4.67;;;;;25.53;36.61;101501.13;5031793;28;45377;-52
2023/06/05 10:47:33;;;;;;;;;6.00;6.00;;;;;25.53;36.70;101495.81;5031143;28;45493;-51
2023/06/05 10:50:17;;;;;;;;;5.67;5.00;;;;;25.53;36.41;101485.13;5021613;28;45529;-50
2023/06/05 10:52:44;;;;;;;;;6.33;4.33;;;;;25.53;36.33;101487.81;5031758;28;45396;-51
2023/06/05 10:55:12;;;;;;;;;5.00;5.00;;;;;25.53;36.55;101486.00;5031676;28;45672;-51
2023/06/05 10:58:07;;;;;;;;;8.00;6.00;;;;;25.55;36.74;101485.91;5026441;28;45842;-49
2023/06/05 11:00:33;;;;;;;;;4.00;4.00;;;;;25.54;36.74;101485.03;5015836;28;46057;-50
2023/06/05 11:02:59;;;;;;;;;3.00;3.00;;;;;25.54;36.19;101479.72;5026750;28;45478;-51
2023/06/05 11:05:26;;;;;;;;;4.67;4.67;;;;;25.56;36.64;101476.91;5025331;28;45599;-51
2023/06/05 11:10:26;;;;;;;;;5.67;4.00;;;;;25.57;36.58;101467.94;4791931;22;47167;-47
2023/06/05 11:12:51;;;;;;;;;4.00;4.00;;;;;25.58;36.66;101464.28;5001257;28;45497;-47
2023/06/05 11:15:39;;;;;;;;;7.33;5.00;;;;;25.57;36.72;101459.94;4998831;28;45517;-49
2023/06/05 11:18:28;;;;;;;;;2.00;0.33;;;;;25.58;36.50;101456.31;4992653;28;45707;-48
2023/06/05 11:20:53;;;;;;;;;3.33;3.33;;;;;25.57;36.82;101455.47;5000346;28;45707;-48
2023/06/05 11:23:18;;;;;;;;;4.33;4.33;;;;;25.58;36.70;101449.16;5000657;28;45429;-47
2023/06/05 11:25:44;;;;;;;;;4.33;3.00;;;;;25.59;36.65;101447.34;4998177;28;45689;-48
2023/06/05 11:28:12;;;;;;;;;5.00;5.00;;;;;25.58;36.35;101448.31;4990934;28;45460;-50
2023/06/05 11:30:45;;;;;;;;;7.33;6.00;;;;;25.60;36.72;101451.69;4992728;28;45801;-48
2023/06/05 11:33:16;;;;;;;;;4.00;4.00;;;;;25.61;36.60;101453.38;4992679;28;45809;-49
2023/06/05 11:35:43;;;;;;;;;3.00;3.00;;;;;25.60;36.59;101455.19;4987636;28;45639;-47
2023/06/05 11:38:17;;;;;;;;;4.67;4.67;;;;;25.62;36.48;101463.06;4993206;28;45363;-48
2023/06/05 11:40:44;;;;;;;;;4.67;4.67;;;;;25.62;36.31;101457.72;4991110;28;46109;-49
2023/06/05 11:43:13;;;;;;;;;4.67;4.67;;;;;25.63;36.44;101446.06;4994475;28;45538;-49
2023/06/05 11:45:40;;;;;;;;;4.33;3.00;;;;;25.63;36.80;101447.91;4993461;28;45536;-49
2023/06/05 11:48:13;;;;;;;;;3.00;3.00;;;;;25.63;36.49;101454.06;4994175;28;45616;-49
2023/06/05 11:50:57;;;;;;;;;4.33;4.33;;;;;25.65;36.69;101448.63;5013665;28;46107;-48
2023/06/05 11:53:23;;;;;;;;;5.00;5.00;;;;;25.65;36.77;101444.13;5007752;28;45520;-48
2023/06/05 11:58:27;;;;;;;;;4.67;3.67;;;;;25.66;36.52;101437.81;5006853;28;45538;-46
2023/06/05 12:01:04;;;;;;;;;7.00;3.67;;;;;25.68;36.51;101435.03;5004226;28;45503;-47
2023/06/05 12:03:29;;;;;;;;;5.00;5.00;;;;;25.67;36.41;101423.50;4996721;28;45994;-47
2023/06/05 12:05:54;;;;;;;;;4.00;4.00;;;;;25.67;36.37;101434.16;5001969;28;45358;-46
2023/06/05 12:08:30;;;;;;;;;5.00;3.67;;;;;25.68;36.58;101435.03;4993110;28;45344;-48
2023/06/05 12:10:58;;;;;;;;;5.33;4.00;;;;;25.65;36.03;101432.63;4989381;28;45544;-49
2023/06/05 12:13:47;;;;;;;;;5.33;4.67;;;;;25.68;36.13;101435.03;4995681;28;46872;-45
2023/06/05 12:16:13;;;;;;;;;5.00;5.00;;;;;25.68;36.58;101427.03;4991182;28;45308;-45
2023/06/05 12:18:38;;;;;;;;;4.00;4.00;;;;;25.70;36.62;101430.38;4997614;28;45884;-44
2023/06/05 12:21:06;;;;;;;;;5.00;5.00;;;;;25.71;36.15;101437.41;4997133;28;45343;-46
2023/06/05 12:23:32;;;;;;;;;5.75;5.75;;;;;25.71;36.07;101437.41;4984852;28;45446;-46
2023/06/05 12:26:03;;;;;;;;;5.67;5.00;;;;;25.72;36.30;101425.75;4989504;28;45246;-48
2023/06/05 12:28:31;;;;;;;;;4.67;4.33;;;;;25.71;36.16;101430.25;4996862;28;45409;-47
2023/06/05 12:30:58;;;;;;;;;6.00;5.33;;;;;25.72;36.03;101429.28;4995970;28;46173;-45
2023/06/05 12:33:24;;;;;;;;;5.00;5.00;;;;;25.72;36.37;101423.94;4997336;28;45593;-46
2023/06/05 12:36:10;;;;;;;;;4.00;4.00;;;;;25.74;36.13;101418.47;5014908;28;45609;-48
2023/06/05 12:38:42;;;;;;;;;7.00;7.00;;;;;25.75;35.83;101415.66;4996954;28;45384;-45
2023/06/05 12:41:08;;;;;;;;;6.00;6.00;;;;;25.73;36.24;101422.94;4993702;28;46126;-45
2023/06/05 12:43:34;;;;;;;;;4.00;4.00;;;;;25.75;36.26;101422.81;4995952;28;45464;-45
2023/06/05 12:46:01;;;;;;;;;4.67;4.67;;;;;25.77;36.15;101412.03;4995462;28;45584;-46
2023/06/05 12:48:26;;;;;;;;;6.67;5.33;;;;;25.75;36.31;101415.66;4996407;28;45609;-46
2023/06/05 12:50:52;;;;;;;;;6.67;6.67;;;;;25.77;36.27;101410.19;4992543;28;45980;-45
2023/06/05 12:53:18;;;;;;;;;7.33;6.00;;;;;25.78;36.43;101413.72;4996556;28;45545;-47
2023/06/05 12:55:43;;;;;;;;;6.33;4.00;;;;;25.78;36.08;101417.19;5002220;28;45385;-48
2023/06/05 12:58:09;;;;;;;;;7.00;6.67;;;;;25.80;35.86;101420.59;4996126;28;45681;-47
2023/06/05 13:00:34;;;;;;;;;6.75;6.00;;;;;25.80;36.16;101409.06;4996718;28;45406;-46
2023/06/05 13:03:00;;;;;;;;;5.67;5.67;;;;;25.80;35.93;101407.25;4995168;28;45468;-47
2023/06/05 13:05:26;;;;;;;;;6.00;6.00;;;;;25.81;36.03;101411.59;4995850;28;45541;-45
2023/06/05 13:07:51;;;;;;;;;7.67;6.67;;;;;25.81;35.70;101408.06;4996628;28;45849;-45
2023/06/05 13:10:17;;;;;;;;;7.00;5.00;;;;;25.82;35.46;101412.44;4979002;28;45693;-49
2023/06/05 13:12:43;;;;;;;;;9.00;7.75;;;;;25.81;35.52;101411.59;4977678;28;45359;-46
2023/06/05 13:15:09;;;;;;;;;6.33;5.67;;;;;25.80;34.97;101407.25;4993848;28;45279;-45
2023/06/05 13:17:37;;;;;;;;;6.25;5.50;;;;;25.81;35.03;101400.09;4997444;28;45612;-46
2023/06/05 13:20:08;;;;;;;;;6.00;6.00;;;;;25.82;34.39;101407.13;4997181;28;45481;-45
2023/06/05 13:22:37;;;;;;;;;6.67;5.00;;;;;25.80;34.47;101399.25;4996578;28;45330;-47
2023/06/05 13:25:03;;;;;;;;;6.67;6.33;;;;;25.80;34.13;101390.41;4994790;28;47068;-50
2023/06/05 13:27:28;;;;;;;;;8.50;6.50;;;;;25.81;34.11;101392.09;4997111;28;45592;-47
2023/06/05 13:29:53;;;;;;;;;5.00;5.00;;;;;25.81;33.98;101389.41;4995655;28;46184;-45
2023/06/05 13:32:19;;;;;;;;;5.00;5.00;;;;;25.82;33.69;101393.78;4996752;28;45449;-45
2023/06/05 13:34:46;;;;;;;;;7.00;6.00;;;;;25.82;33.78;101385.81;4989724;28;45372;-46
2023/06/05 13:37:12;;;;;;;;;8.00;4.67;;;;;25.82;33.49;101393.78;5012612;28;45374;-47
2023/06/05 13:39:37;;;;;;;;;6.00;6.00;;;;;25.81;33.50;101392.94;4999219;28;45590;-46
2023/06/05 13:42:03;;;;;;;;;6.67;5.00;;;;;25.82;33.41;101380.47;4995367;28;45553;-46
2023/06/05 13:44:30;;;;;;;;;4.67;4.67;;;;;25.83;33.46;101382.16;4994848;28;45363;-45
2023/06/05 13:46:55;;;;;;;;;5.33;5.33;;;;;25.83;33.14;101392.81;5004667;28;47008;-50
2023/06/05 13:49:21;;;;;;;;;4.33;4.33;;;;;25.83;33.17;101382.16;5001353;28;46109;-46
2023/06/05 13:51:46;;;;;;;;;6.00;6.00;;;;;25.84;33.21;101383.81;4997524;28;45464;-49
2023/06/05 13:54:12;;;;;;;;;5.00;5.00;;;;;25.83;33.26;101376.81;4995967;28;45298;-48
2023/06/05 13:56:37;;;;;;;;;4.67;4.67;;;;;25.85;33.11;101380.16;4994748;28;45608;-45
2023/06/05 13:59:02;;;;;;;;;7.33;6.33;;;;;25.85;32.79;101380.16;4984168;28;45976;-46
2023/06/05 14:01:28;;;;;;;;;6.00;6.00;;;;;25.87;32.71;101378.22;4995238;28;45866;-50
2023/06/05 14:03:53;;;;;;;;;6.33;5.00;;;;;25.87;32.94;101371.06;4992679;28;45350;-47
2023/06/05 14:06:20;;;;;;;;;9.00;6.67;;;;;25.88;32.70;101375.41;4993170;28;45418;-47
2023/06/05 14:08:46;;;;;;;;;6.00;5.00;;;;;25.85;32.53;101362.38;4997137;28;46209;-45
2023/06/05 14:11:11;;;;;;;;;6.50;6.00;;;;;25.87;32.39;101364.91;4993345;28;45608;-50
2023/06/05 14:13:37;;;;;;;;;7.33;7.33;;;;;25.87;32.17;101362.22;5001276;28;45351;-47
2023/06/05 14:16:03;;;;;;;;;5.33;5.33;;;;;25.89;32.65;101368.25;4996683;28;45395;-48
2023/06/05 14:18:29;;;;;;;;;6.00;6.00;;;;;25.91;32.59;101368.94;4994570;28;46353;-50
2023/06/05 14:20:55;;;;;;;;;6.67;6.67;;;;;25.92;32.45;101365.28;4995606;28;45335;-49
2023/06/05 14:23:23;;;;;;;;;5.33;5.33;;;;;25.93;32.55;101360.81;4995103;28;45279;-51
2023/06/05 14:25:49;;;;;;;;;5.67;5.00;;;;;25.93;32.73;101360.81;4995836;28;45500;-46
2023/06/05 14:28:14;;;;;;;;;6.00;6.00;;;;;25.94;32.95;101358.00;4997257;28;46354;-50
2023/06/05 14:30:40;;;;;;;;;6.00;6.00;;;;;25.94;33.08;101352.69;4995400;28;45401;-46
2023/06/05 14:33:05;;;;;;;;;3.33;3.33;;;;;25.98;32.80;101363.91;4995740;28;45566;-46
2023/06/05 14:35:30;;;;;;;;;4.67;4.00;;;;;25.97;33.29;101351.56;4996287;28;45406;-45
2023/06/05 14:37:56;;;;;;;;;7.00;7.00;;;;;25.98;33.20;101347.91;4995356;28;45866;-47
2023/06/05 14:40:21;;;;;;;;;4.50;4.50;;;;;26.01;33.00;101344.97;5012051;28;45374;-45
2023/06/05 14:42:48;;;;;;;;;5.25;5.25;;;;;26.00;33.16;101354.78;5002845;28;45394;-50
2023/06/05 14:45:14;;;;;;;;;6.00;5.00;;;;;26.01;33.53;101350.28;4996129;28;45430;-46
2023/06/05 14:47:39;;;;;;;;;6.00;6.00;;;;;26.02;33.06;101344.78;4995410;28;46201;-47
2023/06/05 14:50:06;;;;;;;;;4.33;4.33;;;;;26.02;33.24;101346.63;4995839;28;45331;-47
2023/06/05 14:52:32;;;;;;;;;4.67;4.67;;;;;26.04;33.34;101349.13;4995557;28;45574;-46
